sensor_id;sensor_type;location;lat;lon;timestamp;noise_LAeq;noise_LA_min;noise_LA_max;noise_LA01;noise_LA95
59284;Laerm;45056;47.602;9.886;2023-05-07T00:01:35;44.08;34.69;57.10;;
59284;Laerm;45056;47.602;9.886;2023-05-07T00:04:05;38.87;34.69;44.07;;
59284;Laerm;45056;47.602;9.886;2023-05-07T00:06:34;40.12;35.36;48.40;;
59284;Laerm;45056;47.602;9.886;2023-05-07T00:09:02;40.04;34.31;48.34;;
59284;Laerm;45056;47.602;9.886;2023-05-07T00:11:31;42.38;35.94;55.98;;
59284;Laerm;45056;47.602;9.886;2023-05-07T00:13:59;41.75;35.94;51.57;;
59284;Laerm;45056;47.602;9.886;2023-05-07T00:16:27;41.15;35.04;56.47;;
59284;Laerm;45056;47.602;9.886;2023-05-07T00:18:55;39.40;35.31;44.51;;
59284;Laerm;45056;47.602;9.886;2023-05-07T00:21:24;39.32;35.36;45.75;;
59284;Laerm;45056;47.602;9.886;2023-05-07T00:23:54;39.24;34.31;48.83;;
59284;Laerm;45056;47.602;9.886;2023-05-07T00:26:22;39.08;33.97;43.72;;
59284;Laerm;45056;47.602;9.886;2023-05-07T00:28:50;41.16;35.04;54.40;;
59284;Laerm;45056;47.602;9.886;2023-05-07T00:31:18;49.89;34.31;70.69;;
59284;Laerm;45056;47.602;9.886;2023-05-07T00:33:46;39.92;34.69;52.06;;
59284;Laerm;45056;47.602;9.886;2023-05-07T00:36:14;43.70;34.31;61.46;;
59284;Laerm;45056;47.602;9.886;2023-05-07T00:38:43;38.36;33.90;41.46;;
59284;Laerm;45056;47.602;9.886;2023-05-07T00:41:11;40.00;34.31;52.46;;
59284;Laerm;45056;47.602;9.886;2023-05-07T00:43:39;39.88;35.66;45.36;;
59284;Laerm;45056;47.602;9.886;2023-05-07T00:46:07;42.04;35.31;57.25;;
59284;Laerm;45056;47.602;9.886;2023-05-07T00:48:35;38.92;34.69;44.62;;
59284;Laerm;45056;47.602;9.886;2023-05-07T00:51:03;39.62;34.31;49.57;;
59284;Laerm;45056;47.602;9.886;2023-05-07T00:56:06;39.55;34.69;44.51;;
59284;Laerm;45056;47.602;9.886;2023-05-07T00:58:35;38.63;33.44;43.49;;
59284;Laerm;45056;47.602;9.886;2023-05-07T01:01:03;45.21;35.36;57.76;;
59284;Laerm;45056;47.602;9.886;2023-05-07T01:03:31;40.69;35.04;52.50;;
59284;Laerm;45056;47.602;9.886;2023-05-07T01:06:01;40.96;35.04;50.00;;
59284;Laerm;45056;47.602;9.886;2023-05-07T01:08:32;39.23;34.69;43.99;;
59284;Laerm;45056;47.602;9.886;2023-05-07T01:11:03;38.97;35.36;42.76;;
59284;Laerm;45056;47.602;9.886;2023-05-07T01:13:33;40.73;34.31;54.40;;
59284;Laerm;45056;47.602;9.886;2023-05-07T01:16:02;40.22;33.44;57.61;;
59284;Laerm;45056;47.602;9.886;2023-05-07T01:18:30;38.91;35.36;43.04;;
59284;Laerm;45056;47.602;9.886;2023-05-07T01:21:01;39.72;33.90;51.39;;
59284;Laerm;45056;47.602;9.886;2023-05-07T01:23:30;38.70;35.36;58.93;;
59284;Laerm;45056;47.602;9.886;2023-05-07T01:25:58;38.41;34.69;41.53;;
59284;Laerm;45056;47.602;9.886;2023-05-07T01:28:26;39.33;35.04;48.85;;
59284;Laerm;45056;47.602;9.886;2023-05-07T01:31:00;41.67;33.90;57.00;;
59284;Laerm;45056;47.602;9.886;2023-05-07T01:33:34;38.57;35.04;43.44;;
59284;Laerm;45056;47.602;9.886;2023-05-07T01:36:06;40.25;35.04;49.70;;
59284;Laerm;45056;47.602;9.886;2023-05-07T01:38:39;41.66;34.69;56.44;;
59284;Laerm;45056;47.602;9.886;2023-05-07T01:41:08;41.27;34.69;55.65;;
59284;Laerm;45056;47.602;9.886;2023-05-07T01:43:36;41.78;34.31;56.28;;
59284;Laerm;45056;47.602;9.886;2023-05-07T01:46:05;41.26;34.31;57.55;;
59284;Laerm;45056;47.602;9.886;2023-05-07T01:48:34;39.21;35.04;43.77;;
59284;Laerm;45056;47.602;9.886;2023-05-07T01:51:04;39.04;35.36;42.41;;
59284;Laerm;45056;47.602;9.886;2023-05-07T01:53:37;38.59;33.90;41.61;;
59284;Laerm;45056;47.602;9.886;2023-05-07T01:56:06;38.44;34.31;42.22;;
59284;Laerm;45056;47.602;9.886;2023-05-07T01:58:34;40.13;34.31;51.32;;
59284;Laerm;45056;47.602;9.886;2023-05-07T02:01:02;42.82;34.31;56.89;;
59284;Laerm;45056;47.602;9.886;2023-05-07T02:03:30;38.62;34.31;47.86;;
59284;Laerm;45056;47.602;9.886;2023-05-07T02:05:58;38.37;32.93;48.13;;
59284;Laerm;45056;47.602;9.886;2023-05-07T02:08:27;39.02;34.31;48.00;;
59284;Laerm;45056;47.602;9.886;2023-05-07T02:10:56;39.55;34.31;49.12;;
59284;Laerm;45056;47.602;9.886;2023-05-07T02:13:26;39.05;34.69;48.73;;
59284;Laerm;45056;47.602;9.886;2023-05-07T02:15:55;39.86;33.44;57.32;;
59284;Laerm;45056;47.602;9.886;2023-05-07T02:18:23;38.50;34.31;47.14;;
59284;Laerm;45056;47.602;9.886;2023-05-07T02:20:51;38.50;34.31;43.58;;
59284;Laerm;45056;47.602;9.886;2023-05-07T02:23:19;38.60;35.04;45.66;;
59284;Laerm;45056;47.602;9.886;2023-05-07T02:25:47;38.53;35.04;41.89;;
59284;Laerm;45056;47.602;9.886;2023-05-07T02:28:17;38.98;34.69;45.80;;
59284;Laerm;45056;47.602;9.886;2023-05-07T02:30:45;41.18;35.04;57.78;;
59284;Laerm;45056;47.602;9.886;2023-05-07T02:33:13;38.51;33.90;41.53;;
59284;Laerm;45056;47.602;9.886;2023-05-07T02:35:41;38.37;33.90;41.61;;
59284;Laerm;45056;47.602;9.886;2023-05-07T02:38:09;38.53;33.90;48.23;;
59284;Laerm;45056;47.602;9.886;2023-05-07T02:40:38;39.33;34.31;50.92;;
59284;Laerm;45056;47.602;9.886;2023-05-07T02:43:06;39.23;33.44;46.50;;
59284;Laerm;45056;47.602;9.886;2023-05-07T02:45:35;41.98;34.31;57.65;;
59284;Laerm;45056;47.602;9.886;2023-05-07T02:48:05;38.89;33.90;46.59;;
59284;Laerm;45056;47.602;9.886;2023-05-07T02:50:33;38.93;34.31;47.93;;
59284;Laerm;45056;47.602;9.886;2023-05-07T02:53:01;38.80;33.44;46.80;;
59284;Laerm;45056;47.602;9.886;2023-05-07T02:55:30;39.00;35.04;47.12;;
59284;Laerm;45056;47.602;9.886;2023-05-07T02:57:58;40.33;35.04;53.77;;
59284;Laerm;45056;47.602;9.886;2023-05-07T03:00:26;43.66;35.36;58.25;;
59284;Laerm;45056;47.602;9.886;2023-05-07T03:02:56;39.26;34.69;50.16;;
59284;Laerm;45056;47.602;9.886;2023-05-07T03:05:24;41.26;35.04;54.63;;
59284;Laerm;45056;47.602;9.886;2023-05-07T03:07:52;40.08;35.59;48.07;;
59284;Laerm;45056;47.602;9.886;2023-05-07T03:10:20;40.07;35.66;49.30;;
59284;Laerm;45056;47.602;9.886;2023-05-07T03:12:48;40.24;35.94;47.90;;
59284;Laerm;45056;47.602;9.886;2023-05-07T03:15:16;41.32;35.36;57.70;;
59284;Laerm;45056;47.602;9.886;2023-05-07T03:17:44;41.94;36.45;53.95;;
59284;Laerm;45056;47.602;9.886;2023-05-07T03:20:14;42.66;36.45;55.31;;
59284;Laerm;45056;47.602;9.886;2023-05-07T03:22:43;41.05;36.91;52.46;;
59284;Laerm;45056;47.602;9.886;2023-05-07T03:25:11;40.53;36.20;50.24;;
59284;Laerm;45056;47.602;9.886;2023-05-07T03:27:39;40.48;34.69;49.84;;
59284;Laerm;45056;47.602;9.886;2023-05-07T03:30:10;42.57;35.36;58.96;;
59284;Laerm;45056;47.602;9.886;2023-05-07T03:32:38;39.40;33.90;48.99;;
59284;Laerm;45056;47.602;9.886;2023-05-07T03:35:06;40.22;35.66;50.96;;
59284;Laerm;45056;47.602;9.886;2023-05-07T03:37:37;41.89;36.91;53.06;;
59284;Laerm;45056;47.602;9.886;2023-05-07T03:40:07;42.45;36.69;53.15;;
59284;Laerm;45056;47.602;9.886;2023-05-07T03:42:36;41.59;36.20;55.44;;
59284;Laerm;45056;47.602;9.886;2023-05-07T03:45:06;42.87;35.66;57.95;;
59284;Laerm;45056;47.602;9.886;2023-05-07T03:47:34;42.62;36.20;57.51;;
59284;Laerm;45056;47.602;9.886;2023-05-07T03:50:02;40.38;35.04;51.19;;
59284;Laerm;45056;47.602;9.886;2023-05-07T03:52:30;40.78;36.20;51.40;;
59284;Laerm;45056;47.602;9.886;2023-05-07T03:55:01;42.19;35.36;54.16;;
59284;Laerm;45056;47.602;9.886;2023-05-07T03:57:29;42.57;35.66;62.92;;
59284;Laerm;45056;47.602;9.886;2023-05-07T03:59:57;42.19;35.36;57.82;;
59284;Laerm;45056;47.602;9.886;2023-05-07T04:02:25;43.34;35.66;59.15;;
59284;Laerm;45056;47.602;9.886;2023-05-07T04:04:53;42.01;35.94;50.92;;
59284;Laerm;45056;47.602;9.886;2023-05-07T04:07:21;42.71;35.66;54.53;;
59284;Laerm;45056;47.602;9.886;2023-05-07T04:09:49;45.42;36.20;66.98;;
59284;Laerm;45056;47.602;9.886;2023-05-07T04:12:18;42.39;35.36;56.04;;
59284;Laerm;45056;47.602;9.886;2023-05-07T04:14:46;43.53;36.45;61.36;;
59284;Laerm;45056;47.602;9.886;2023-05-07T04:17:15;42.22;35.94;56.78;;
59284;Laerm;45056;47.602;9.886;2023-05-07T04:19:43;44.61;35.66;59.30;;
59284;Laerm;45056;47.602;9.886;2023-05-07T04:22:12;41.77;35.04;61.59;;
59284;Laerm;45056;47.602;9.886;2023-05-07T04:24:40;42.56;35.94;56.11;;
59284;Laerm;45056;47.602;9.886;2023-05-07T04:27:08;41.86;35.94;54.50;;
59284;Laerm;45056;47.602;9.886;2023-05-07T04:29:37;46.00;36.45;60.33;;
59284;Laerm;45056;47.602;9.886;2023-05-07T04:32:09;42.78;35.36;58.00;;
59284;Laerm;45056;47.602;9.886;2023-05-07T04:34:37;40.70;35.94;48.87;;
59284;Laerm;45056;47.602;9.886;2023-05-07T04:37:05;43.39;35.04;57.09;;
59284;Laerm;45056;47.602;9.886;2023-05-07T04:39:33;42.97;35.36;63.11;;
59284;Laerm;45056;47.602;9.886;2023-05-07T04:42:02;41.32;35.66;60.19;;
59284;Laerm;45056;47.602;9.886;2023-05-07T04:44:31;41.73;36.20;53.54;;
59284;Laerm;45056;47.602;9.886;2023-05-07T04:47:00;52.38;26.91;66.55;;
59284;Laerm;45056;47.602;9.886;2023-05-07T04:49:28;42.75;35.94;54.46;;
59284;Laerm;45056;47.602;9.886;2023-05-07T04:51:56;55.93;32.93;88.88;;
59284;Laerm;45056;47.602;9.886;2023-05-07T04:54:25;44.43;35.36;74.73;;
59284;Laerm;45056;47.602;9.886;2023-05-07T04:56:53;50.06;36.20;84.76;;
59284;Laerm;45056;47.602;9.886;2023-05-07T04:59:21;48.40;23.90;79.83;;
59284;Laerm;45056;47.602;9.886;2023-05-07T05:01:49;59.12;26.91;85.83;;
59284;Laerm;45056;47.602;9.886;2023-05-07T05:04:18;61.85;31.68;88.40;;
59284;Laerm;45056;47.602;9.886;2023-05-07T05:06:46;57.81;26.91;86.46;;
59284;Laerm;45056;47.602;9.886;2023-05-07T05:09:14;42.06;36.20;51.75;;
59284;Laerm;45056;47.602;9.886;2023-05-07T05:11:43;41.98;36.91;51.82;;
59284;Laerm;45056;47.602;9.886;2023-05-07T05:14:11;42.38;37.88;50.89;;
59284;Laerm;45056;47.602;9.886;2023-05-07T05:16:39;45.26;37.32;58.25;;
59284;Laerm;45056;47.602;9.886;2023-05-07T05:19:07;42.68;36.91;54.02;;
59284;Laerm;45056;47.602;9.886;2023-05-07T05:21:37;41.58;36.45;55.27;;
59284;Laerm;45056;47.602;9.886;2023-05-07T05:24:06;51.35;35.94;69.90;;
59284;Laerm;45056;47.602;9.886;2023-05-07T05:26:34;57.31;36.69;72.59;;
59284;Laerm;45056;47.602;9.886;2023-05-07T05:29:02;48.04;36.34;64.05;;
59284;Laerm;45056;47.602;9.886;2023-05-07T05:31:30;51.63;37.32;66.75;;
59284;Laerm;45056;47.602;9.886;2023-05-07T05:33:58;51.84;36.91;64.80;;
59284;Laerm;45056;47.602;9.886;2023-05-07T05:36:26;44.74;36.91;63.48;;
59284;Laerm;45056;47.602;9.886;2023-05-07T05:38:56;49.23;38.52;62.55;;
59284;Laerm;45056;47.602;9.886;2023-05-07T05:41:24;54.10;37.70;73.16;;
59284;Laerm;45056;47.602;9.886;2023-05-07T05:43:52;51.76;37.12;68.17;;
59284;Laerm;45056;47.602;9.886;2023-05-07T05:46:20;43.52;38.21;57.60;;
59284;Laerm;45056;47.602;9.886;2023-05-07T05:48:48;41.68;37.32;50.64;;
59284;Laerm;45056;47.602;9.886;2023-05-07T05:51:16;40.84;36.20;50.12;;
59284;Laerm;45056;47.602;9.886;2023-05-07T05:53:44;40.67;37.12;44.90;;
59284;Laerm;45056;47.602;9.886;2023-05-07T05:56:13;47.55;35.66;63.76;;
59284;Laerm;45056;47.602;9.886;2023-05-07T05:58:42;44.25;36.45;57.42;;
59284;Laerm;45056;47.602;9.886;2023-05-07T06:01:10;45.77;37.32;60.25;;
59284;Laerm;45056;47.602;9.886;2023-05-07T06:03:38;46.50;36.20;67.41;;
59284;Laerm;45056;47.602;9.886;2023-05-07T06:06:06;45.58;36.45;64.18;;
59284;Laerm;45056;47.602;9.886;2023-05-07T06:08:35;46.58;37.70;62.43;;
59284;Laerm;45056;47.602;9.886;2023-05-07T06:11:03;50.73;37.88;64.49;;
59284;Laerm;45056;47.602;9.886;2023-05-07T06:13:32;51.64;36.69;65.59;;
59284;Laerm;45056;47.602;9.886;2023-05-07T06:16:00;50.77;37.12;64.84;;
59284;Laerm;45056;47.602;9.886;2023-05-07T06:18:28;51.35;37.88;64.74;;
59284;Laerm;45056;47.602;9.886;2023-05-07T06:20:56;51.24;37.70;64.84;;
59284;Laerm;45056;47.602;9.886;2023-05-07T06:23:24;50.60;36.98;63.90;;
59284;Laerm;45056;47.602;9.886;2023-05-07T06:25:52;50.28;38.60;64.13;;
59284;Laerm;45056;47.602;9.886;2023-05-07T06:28:20;52.01;38.95;64.90;;
59284;Laerm;45056;47.602;9.886;2023-05-07T06:30:50;49.89;37.32;62.46;;
59284;Laerm;45056;47.602;9.886;2023-05-07T06:33:18;49.85;38.21;62.81;;
59284;Laerm;45056;47.602;9.886;2023-05-07T06:35:46;48.95;36.91;61.19;;
59284;Laerm;45056;47.602;9.886;2023-05-07T06:38:14;45.52;38.37;60.11;;
59284;Laerm;45056;47.602;9.886;2023-05-07T06:40:42;42.86;37.87;57.85;;
59284;Laerm;45056;47.602;9.886;2023-05-07T06:43:10;42.08;37.70;53.50;;
59284;Laerm;45056;47.602;9.886;2023-05-07T06:45:38;44.27;36.69;58.04;;
59284;Laerm;45056;47.602;9.886;2023-05-07T06:48:08;53.54;37.88;74.57;;
59284;Laerm;45056;47.602;9.886;2023-05-07T06:50:36;54.81;37.88;70.28;;
59284;Laerm;45056;47.602;9.886;2023-05-07T06:53:04;54.24;38.52;68.93;;
59284;Laerm;45056;47.602;9.886;2023-05-07T06:55:32;54.68;38.21;67.98;;
59284;Laerm;45056;47.602;9.886;2023-05-07T06:58:00;53.73;38.95;68.26;;
59284;Laerm;45056;47.602;9.886;2023-05-07T07:00:28;54.24;38.81;68.21;;
59284;Laerm;45056;47.602;9.886;2023-05-07T07:02:57;55.42;39.21;68.53;;
59284;Laerm;45056;47.602;9.886;2023-05-07T07:05:27;54.39;38.52;69.68;;
59284;Laerm;45056;47.602;9.886;2023-05-07T07:07:55;51.08;38.21;65.14;;
59284;Laerm;45056;47.602;9.886;2023-05-07T07:10:23;53.99;38.67;72.77;;
59284;Laerm;45056;47.602;9.886;2023-05-07T07:12:51;55.11;37.88;73.44;;
59284;Laerm;45056;47.602;9.886;2023-05-07T07:15:20;53.81;38.05;65.71;;
59284;Laerm;45056;47.602;9.886;2023-05-07T07:17:48;53.60;38.95;68.75;;
59284;Laerm;45056;47.602;9.886;2023-05-07T07:20:17;52.02;38.37;63.03;;
59284;Laerm;45056;47.602;9.886;2023-05-07T07:22:46;51.87;38.67;63.83;;
59284;Laerm;45056;47.602;9.886;2023-05-07T07:25:14;52.20;39.21;65.20;;
59284;Laerm;45056;47.602;9.886;2023-05-07T07:27:42;48.56;39.08;63.43;;
59284;Laerm;45056;47.602;9.886;2023-05-07T07:30:11;52.15;38.67;65.99;;
59284;Laerm;45056;47.602;9.886;2023-05-07T07:32:39;53.37;38.21;68.20;;
59284;Laerm;45056;47.602;9.886;2023-05-07T07:35:08;49.37;42.93;60.50;;
59284;Laerm;45056;47.602;9.886;2023-05-07T07:37:36;44.83;39.08;59.45;;
59284;Laerm;45056;47.602;9.886;2023-05-07T07:40:08;51.28;38.81;67.15;;
59284;Laerm;45056;47.602;9.886;2023-05-07T07:42:36;55.90;38.37;69.20;;
59284;Laerm;45056;47.602;9.886;2023-05-07T07:45:06;54.48;39.81;67.95;;
59284;Laerm;45056;47.602;9.886;2023-05-07T07:47:34;50.94;39.92;61.55;;
59284;Laerm;45056;47.602;9.886;2023-05-07T07:50:02;55.68;46.71;61.93;;
59284;Laerm;45056;47.602;9.886;2023-05-07T07:52:30;51.59;39.58;74.06;;
59284;Laerm;45056;47.602;9.886;2023-05-07T07:54:58;55.18;40.33;72.33;;
59284;Laerm;45056;47.602;9.886;2023-05-07T07:57:28;66.59;57.11;75.61;;
59284;Laerm;45056;47.602;9.886;2023-05-07T07:59:56;64.74;41.38;77.26;;
59284;Laerm;45056;47.602;9.886;2023-05-07T08:02:24;50.80;40.62;60.05;;
59284;Laerm;45056;47.602;9.886;2023-05-07T08:04:52;50.52;41.22;61.35;;
59284;Laerm;45056;47.602;9.886;2023-05-07T08:07:20;46.08;38.37;58.77;;
59284;Laerm;45056;47.602;9.886;2023-05-07T08:09:49;45.63;39.21;59.39;;
59284;Laerm;45056;47.602;9.886;2023-05-07T08:12:18;45.13;37.70;59.46;;
59284;Laerm;45056;47.602;9.886;2023-05-07T08:14:47;43.74;38.52;52.75;;
59284;Laerm;45056;47.602;9.886;2023-05-07T08:17:16;44.45;39.81;58.05;;
59284;Laerm;45056;47.602;9.886;2023-05-07T08:19:44;46.06;39.46;59.97;;
59284;Laerm;45056;47.602;9.886;2023-05-07T08:22:12;47.14;39.08;64.08;;
59284;Laerm;45056;47.602;9.886;2023-05-07T08:24:40;46.69;39.70;62.96;;
59284;Laerm;45056;47.602;9.886;2023-05-07T08:27:08;45.22;39.92;64.58;;
59284;Laerm;45056;47.602;9.886;2023-05-07T08:29:36;44.62;39.34;53.15;;
59284;Laerm;45056;47.602;9.886;2023-05-07T08:32:06;45.13;40.03;53.61;;
59284;Laerm;45056;47.602;9.886;2023-05-07T08:34:34;44.66;40.13;53.50;;
59284;Laerm;45056;47.602;9.886;2023-05-07T08:37:02;46.51;39.81;56.71;;
59284;Laerm;45056;47.602;9.886;2023-05-07T08:39:30;44.87;36.91;56.35;;
59284;Laerm;45056;47.602;9.886;2023-05-07T08:42:00;59.43;43.90;72.37;;
59284;Laerm;45056;47.602;9.886;2023-05-07T08:44:34;44.07;39.21;55.53;;
59284;Laerm;45056;47.602;9.886;2023-05-07T08:47:02;44.01;39.81;52.95;;
59284;Laerm;45056;47.602;9.886;2023-05-07T08:49:35;43.78;39.58;52.08;;
59284;Laerm;45056;47.602;9.886;2023-05-07T08:52:03;44.44;39.70;53.17;;
59284;Laerm;45056;47.602;9.886;2023-05-07T08:54:33;45.36;39.92;54.07;;
59284;Laerm;45056;47.602;9.886;2023-05-07T08:57:01;47.68;39.58;57.28;;
59284;Laerm;45056;47.602;9.886;2023-05-07T08:59:30;48.45;41.38;58.32;;
59284;Laerm;45056;47.602;9.886;2023-05-07T09:01:58;63.36;39.58;90.44;;
59284;Laerm;45056;47.602;9.886;2023-05-07T09:04:28;65.50;40.13;89.99;;
59284;Laerm;45056;47.602;9.886;2023-05-07T09:06:59;48.85;40.98;59.40;;
59284;Laerm;45056;47.602;9.886;2023-05-07T09:09:33;49.75;40.80;60.82;;
59284;Laerm;45056;47.602;9.886;2023-05-07T09:12:01;50.42;43.86;58.50;;
59284;Laerm;45056;47.602;9.886;2023-05-07T09:14:30;50.58;40.80;57.37;;
59284;Laerm;45056;47.602;9.886;2023-05-07T09:16:58;49.58;40.62;58.55;;
59284;Laerm;45056;47.602;9.886;2023-05-07T09:19:27;47.32;39.46;57.16;;
59284;Laerm;45056;47.602;9.886;2023-05-07T09:22:01;46.35;39.21;54.43;;
59284;Laerm;45056;47.602;9.886;2023-05-07T09:24:30;49.47;43.19;56.20;;
59284;Laerm;45056;47.602;9.886;2023-05-07T09:27:02;47.97;39.34;58.25;;
59284;Laerm;45056;47.602;9.886;2023-05-07T09:29:31;49.19;42.59;57.74;;
59284;Laerm;45056;47.602;9.886;2023-05-07T09:32:03;47.96;40.80;59.42;;
59284;Laerm;45056;47.602;9.886;2023-05-07T09:34:31;49.72;40.80;61.90;;
59284;Laerm;45056;47.602;9.886;2023-05-07T09:37:03;47.62;40.71;57.89;;
59284;Laerm;45056;47.602;9.886;2023-05-07T09:39:42;49.04;42.59;56.60;;
59284;Laerm;45056;47.602;9.886;2023-05-07T09:42:10;47.78;40.71;55.95;;
59284;Laerm;45056;47.602;9.886;2023-05-07T09:44:39;50.63;42.35;57.32;;
59284;Laerm;45056;47.602;9.886;2023-05-07T09:47:08;47.50;40.98;56.62;;
59284;Laerm;45056;47.602;9.886;2023-05-07T09:49:39;49.19;41.26;61.68;;
59284;Laerm;45056;47.602;9.886;2023-05-07T09:52:10;47.29;40.89;60.97;;
59284;Laerm;45056;47.602;9.886;2023-05-07T09:54:41;49.16;43.63;56.46;;
59284;Laerm;45056;47.602;9.886;2023-05-07T09:57:11;45.72;40.43;54.09;;
59284;Laerm;45056;47.602;9.886;2023-05-07T09:59:43;49.53;43.99;54.84;;
59284;Laerm;45056;47.602;9.886;2023-05-07T10:02:15;49.67;41.82;57.64;;
59284;Laerm;45056;47.602;9.886;2023-05-07T10:04:45;59.53;47.48;71.03;;
59284;Laerm;45056;47.602;9.886;2023-05-07T10:07:16;52.29;40.62;67.71;;
59284;Laerm;45056;47.602;9.886;2023-05-07T10:09:46;48.52;40.43;57.66;;
59284;Laerm;45056;47.602;9.886;2023-05-07T10:12:15;49.84;41.53;55.96;;
59284;Laerm;45056;47.602;9.886;2023-05-07T10:14:45;48.16;40.53;56.89;;
59284;Laerm;45056;47.602;9.886;2023-05-07T10:17:17;50.38;41.30;61.62;;
59284;Laerm;45056;47.602;9.886;2023-05-07T10:19:45;45.13;40.62;55.77;;
59284;Laerm;45056;47.602;9.886;2023-05-07T10:22:17;49.36;41.89;61.25;;
59284;Laerm;45056;47.602;9.886;2023-05-07T10:24:52;50.12;43.90;56.85;;
59284;Laerm;45056;47.602;9.886;2023-05-07T10:27:24;46.07;41.14;60.17;;
59284;Laerm;45056;47.602;9.886;2023-05-07T10:30:11;49.68;40.63;59.71;;
59284;Laerm;45056;47.602;9.886;2023-05-07T10:32:45;50.73;41.38;60.96;;
59284;Laerm;45056;47.602;9.886;2023-05-07T10:35:21;48.31;41.38;59.31;;
59284;Laerm;45056;47.602;9.886;2023-05-07T10:37:51;50.89;41.96;58.78;;
59284;Laerm;45056;47.602;9.886;2023-05-07T10:40:21;44.20;40.80;54.02;;
59284;Laerm;45056;47.602;9.886;2023-05-07T10:42:57;46.46;40.43;56.41;;
59284;Laerm;45056;47.602;9.886;2023-05-07T10:45:27;50.73;43.19;58.21;;
59284;Laerm;45056;47.602;9.886;2023-05-07T10:48:12;51.42;41.96;62.12;;
59284;Laerm;45056;47.602;9.886;2023-05-07T10:50:42;49.61;43.81;59.93;;
59284;Laerm;45056;47.602;9.886;2023-05-07T10:53:27;48.81;41.14;57.17;;
59284;Laerm;45056;47.602;9.886;2023-05-07T10:56:25;49.73;41.89;65.51;;
59284;Laerm;45056;47.602;9.886;2023-05-07T10:58:54;48.75;41.96;60.36;;
59284;Laerm;45056;47.602;9.886;2023-05-07T11:01:52;46.57;41.53;58.28;;
59284;Laerm;45056;47.602;9.886;2023-05-07T11:04:21;48.58;41.30;62.14;;
59284;Laerm;45056;47.602;9.886;2023-05-07T11:07:29;48.35;41.61;61.09;;
59284;Laerm;45056;47.602;9.886;2023-05-07T11:10:03;51.12;42.88;68.91;;
59284;Laerm;45056;47.602;9.886;2023-05-07T11:12:52;51.93;44.39;66.71;;
59284;Laerm;45056;47.602;9.886;2023-05-07T11:15:41;49.68;43.04;59.82;;
59284;Laerm;45056;47.602;9.886;2023-05-07T11:18:12;51.93;42.65;64.01;;
59284;Laerm;45056;47.602;9.886;2023-05-07T11:21:02;51.17;41.75;60.92;;
59284;Laerm;45056;47.602;9.886;2023-05-07T11:24:08;48.47;42.29;59.14;;
59284;Laerm;45056;47.602;9.886;2023-05-07T11:26:47;49.09;41.61;64.47;;
59284;Laerm;45056;47.602;9.886;2023-05-07T11:29:18;50.62;42.03;59.54;;
59284;Laerm;45056;47.602;9.886;2023-05-07T11:31:49;52.76;47.30;58.57;;
59284;Laerm;45056;47.602;9.886;2023-05-07T11:34:22;50.93;42.29;63.13;;
59284;Laerm;45056;47.602;9.886;2023-05-07T11:36:51;49.92;42.03;60.27;;
59284;Laerm;45056;47.602;9.886;2023-05-07T11:39:31;51.13;41.46;60.71;;
59284;Laerm;45056;47.602;9.886;2023-05-07T11:42:01;52.96;45.23;59.49;;
59284;Laerm;45056;47.602;9.886;2023-05-07T11:44:44;50.33;41.81;60.42;;
59284;Laerm;45056;47.602;9.886;2023-05-07T11:47:18;51.77;45.39;58.66;;
59284;Laerm;45056;47.602;9.886;2023-05-07T11:49:48;50.86;43.04;58.24;;
59284;Laerm;45056;47.602;9.886;2023-05-07T11:52:18;51.26;42.59;57.45;;
59284;Laerm;45056;47.602;9.886;2023-05-07T11:54:49;51.46;42.88;59.58;;
59284;Laerm;45056;47.602;9.886;2023-05-07T11:57:19;52.14;42.47;60.34;;
59284;Laerm;45056;47.602;9.886;2023-05-07T11:59:48;49.50;43.39;58.09;;
59284;Laerm;45056;47.602;9.886;2023-05-07T12:02:20;50.18;43.77;61.17;;
59284;Laerm;45056;47.602;9.886;2023-05-07T12:04:48;47.66;42.03;56.74;;
59284;Laerm;45056;47.602;9.886;2023-05-07T12:07:16;47.55;42.03;56.33;;
59284;Laerm;45056;47.602;9.886;2023-05-07T12:09:46;47.22;41.89;60.11;;
59284;Laerm;45056;47.602;9.886;2023-05-07T12:12:14;45.75;42.29;58.36;;
59284;Laerm;45056;47.602;9.886;2023-05-07T12:14:46;47.12;41.14;56.35;;
59284;Laerm;45056;47.602;9.886;2023-05-07T12:17:14;46.48;40.80;60.26;;
59284;Laerm;45056;47.602;9.886;2023-05-07T12:19:45;44.30;41.22;54.34;;
59284;Laerm;45056;47.602;9.886;2023-05-07T12:22:13;46.36;40.80;56.33;;
59284;Laerm;45056;47.602;9.886;2023-05-07T12:24:46;53.32;42.88;63.93;;
59284;Laerm;45056;47.602;9.886;2023-05-07T12:27:16;45.73;41.61;57.37;;
59284;Laerm;45056;47.602;9.886;2023-05-07T12:29:46;49.99;42.53;67.82;;
59284;Laerm;45056;47.602;9.886;2023-05-07T12:32:16;54.80;42.06;65.96;;
59284;Laerm;45056;47.602;9.886;2023-05-07T12:34:46;56.35;42.93;65.14;;
59284;Laerm;45056;47.602;9.886;2023-05-07T12:37:14;54.48;43.19;65.44;;
59284;Laerm;45056;47.602;9.886;2023-05-07T12:39:47;53.81;41.61;64.72;;
59284;Laerm;45056;47.602;9.886;2023-05-07T12:42:19;54.96;41.82;63.62;;
59284;Laerm;45056;47.602;9.886;2023-05-07T12:44:51;57.95;42.82;75.61;;
59284;Laerm;45056;47.602;9.886;2023-05-07T12:47:20;56.21;42.16;68.35;;
59284;Laerm;45056;47.602;9.886;2023-05-07T12:49:48;57.19;41.53;63.78;;
59284;Laerm;45056;47.602;9.886;2023-05-07T12:52:16;53.17;41.96;63.54;;
59284;Laerm;45056;47.602;9.886;2023-05-07T12:54:44;55.08;41.96;63.68;;
59284;Laerm;45056;47.602;9.886;2023-05-07T12:57:12;55.66;43.14;64.53;;
59284;Laerm;45056;47.602;9.886;2023-05-07T12:59:42;55.56;42.41;64.98;;
59284;Laerm;45056;47.602;9.886;2023-05-07T13:02:11;57.19;48.02;63.57;;
59284;Laerm;45056;47.602;9.886;2023-05-07T13:04:39;52.65;41.46;65.35;;
59284;Laerm;45056;47.602;9.886;2023-05-07T13:07:07;51.01;41.89;62.44;;
59284;Laerm;45056;47.602;9.886;2023-05-07T13:09:35;51.54;42.16;61.60;;
59284;Laerm;45056;47.602;9.886;2023-05-07T13:12:04;52.30;41.61;67.81;;
59284;Laerm;45056;47.602;9.886;2023-05-07T13:14:32;51.63;41.94;63.88;;
59284;Laerm;45056;47.602;9.886;2023-05-07T13:17:00;55.79;44.98;62.98;;
59284;Laerm;45056;47.602;9.886;2023-05-07T13:19:30;54.32;41.68;63.43;;
59284;Laerm;45056;47.602;9.886;2023-05-07T13:21:58;55.21;45.77;62.83;;
59284;Laerm;45056;47.602;9.886;2023-05-07T13:24:26;53.55;41.22;61.15;;
59284;Laerm;45056;47.602;9.886;2023-05-07T13:26:54;55.63;46.64;62.85;;
59284;Laerm;45056;47.602;9.886;2023-05-07T13:29:22;56.05;46.50;64.50;;
59284;Laerm;45056;47.602;9.886;2023-05-07T13:31:55;55.42;41.89;66.18;;
59284;Laerm;45056;47.602;9.886;2023-05-07T13:34:23;55.57;43.39;62.83;;
59284;Laerm;45056;47.602;9.886;2023-05-07T13:36:53;53.82;41.82;63.93;;
59284;Laerm;45056;47.602;9.886;2023-05-07T13:39:21;56.05;41.96;65.18;;
59284;Laerm;45056;47.602;9.886;2023-05-07T13:41:49;55.34;41.68;65.77;;
59284;Laerm;45056;47.602;9.886;2023-05-07T13:44:17;54.79;42.35;66.78;;
59284;Laerm;45056;47.602;9.886;2023-05-07T13:46:45;55.83;42.16;64.94;;
59284;Laerm;45056;47.602;9.886;2023-05-07T13:49:13;55.42;42.22;63.87;;
59284;Laerm;45056;47.602;9.886;2023-05-07T13:51:41;53.71;43.63;62.87;;
59284;Laerm;45056;47.602;9.886;2023-05-07T13:54:11;55.80;42.53;66.36;;
59284;Laerm;45056;47.602;9.886;2023-05-07T13:56:39;55.62;44.94;63.66;;
59284;Laerm;45056;47.602;9.886;2023-05-07T13:59:07;53.32;41.89;65.67;;
59284;Laerm;45056;47.602;9.886;2023-05-07T14:01:35;57.10;47.50;64.76;;